Time;durP1;ratioP1;P1;durP2;ratioP2;P2;SDS_P1;SDS_P2;PMS_P1;PMS_P2;Temp;Humidity;BMP_temperature;BMP_pressure;BME280_temperature;BME280_humidity;BME280_pressure;Samples;Min_cycle;Max_cycle;Signal;HPM_P1;HPM_P2
2021/07/26 00:00:35;;;;;;;11.10;2.58;;;;;;;-148.56;100.00;61375.16;4988390;28;20492;-31
2021/07/26 00:03:59;;;;;;;5.00;2.42;;;;;;;-148.56;100.00;61375.16;4974981;28;20038;-33
2021/07/26 00:07:23;;;;;;;7.57;2.33;;;;;;;-148.56;100.00;61375.16;4987490;28;20496;-32
2021/07/26 00:10:47;;;;;;;3.95;2.25;;;;;;;-148.56;100.00;61375.16;4992819;28;20483;-31
2021/07/26 00:14:11;;;;;;;6.55;2.72;;;;;;;-148.56;100.00;61375.16;4983145;28;20026;-31
2021/07/26 00:17:03;;;;;;;6.07;2.42;;;;;;;-148.56;100.00;61375.16;4983440;28;20030;-31
2021/07/26 00:19:28;;;;;;;4.78;2.60;;;;;;;-148.56;100.00;61375.16;4985128;28;20038;-31
2021/07/26 00:22:52;;;;;;;5.10;2.28;;;;;;;-148.56;100.00;61375.16;4984862;28;20022;-32
2021/07/26 00:26:17;;;;;;;5.55;2.42;;;;;;;-148.56;100.00;61375.16;4995403;28;21025;-29
2021/07/26 00:29:40;;;;;;;5.70;2.38;;;;;;;-148.56;100.00;61375.16;4998703;28;20488;-31
2021/07/26 00:37:18;;;;;;;8.00;2.63;;;;;;;-148.56;100.00;61375.16;4989302;28;20030;-32
2021/07/26 00:40:42;;;;;;;4.97;2.50;;;;;;;-148.56;100.00;61375.16;4991513;28;20026;-30
2021/07/26 00:44:06;;;;;;;5.82;2.40;;;;;;;-148.56;100.00;61375.16;4987183;28;20549;-31
2021/07/26 00:47:30;;;;;;;5.28;2.25;;;;;;;-148.56;100.00;61375.16;4993981;28;20041;-31
2021/07/26 00:50:54;;;;;;;4.75;2.28;;;;;;;-148.56;100.00;61375.16;4987358;28;20080;-30
2021/07/26 00:54:37;;;;;;;4.20;2.33;;;;;;;-148.56;100.00;61375.16;5006890;28;20029;-33
2021/07/26 00:58:02;;;;;;;4.40;2.38;;;;;;;-148.56;100.00;61375.16;4992893;28;20018;-31
2021/07/26 01:01:25;;;;;;;4.72;2.55;;;;;;;-148.56;100.00;61375.16;4993463;28;20042;-31
2021/07/26 01:04:49;;;;;;;7.75;2.70;;;;;;;-148.56;100.00;61375.16;4988247;28;20087;-31
2021/07/26 01:08:13;;;;;;;5.30;2.60;;;;;;;-148.56;100.00;61375.16;4984919;28;20068;-33
2021/07/26 01:11:37;;;;;;;4.05;2.42;;;;;;;-148.56;100.00;61375.16;4984434;28;20048;-34
2021/07/26 01:15:01;;;;;;;4.05;2.30;;;;;;;-148.56;100.00;61375.16;4991599;28;20034;-30
2021/07/26 01:18:36;;;;;;;3.83;2.08;;;;;;;-148.56;100.00;61375.16;5000416;28;20033;-31
2021/07/26 01:22:03;;;;;;;2.63;2.25;;;;;;;-148.56;100.00;61375.16;4983550;28;20022;-28
2021/07/26 01:25:27;;;;;;;4.85;2.42;;;;;;;-148.56;100.00;61375.16;4981773;28;20044;-36
2021/07/26 01:28:55;;;;;;;3.33;2.45;;;;;;;-148.56;100.00;61375.16;4987166;28;20560;-30
2021/07/26 01:32:19;;;;;;;5.28;2.30;;;;;;;-148.56;100.00;61375.16;4985332;28;20038;-30
2021/07/26 01:35:43;;;;;;;3.47;2.50;;;;;;;-148.56;100.00;61375.16;4987833;28;20904;-33
2021/07/26 01:39:07;;;;;;;3.28;2.33;;;;;;;-148.56;100.00;61375.16;4997299;28;20089;-31
2021/07/26 01:42:30;;;;;;;3.72;2.70;;;;;;;-148.56;100.00;61375.16;4983205;28;20034;-30
2021/07/26 01:45:56;;;;;;;5.55;2.47;;;;;;;-148.56;100.00;61375.16;4993420;28;20026;-31
2021/07/26 01:49:26;;;;;;;5.25;2.25;;;;;;;-148.56;100.00;61375.16;4984541;28;20097;-30
2021/07/26 01:52:50;;;;;;;5.68;2.38;;;;;;;-148.56;100.00;61375.16;4986284;28;20025;-33
2021/07/26 01:56:14;;;;;;;6.28;2.40;;;;;;;-148.56;100.00;61375.16;4988921;28;20034;-32
2021/07/26 01:59:38;;;;;;;4.35;2.53;;;;;;;-148.56;100.00;61375.16;4980610;28;20031;-36
2021/07/26 02:03:02;;;;;;;3.30;2.35;;;;;;;-148.56;100.00;61375.16;4994875;28;20645;-31
2021/07/26 02:06:26;;;;;;;6.30;2.20;;;;;;;-148.56;100.00;61375.16;4996065;28;20512;-33
2021/07/26 02:09:50;;;;;;;3.28;2.25;;;;;;;-148.56;100.00;61375.16;4987939;28;20061;-31
2021/07/26 02:13:14;;;;;;;6.10;2.20;;;;;;;-148.56;100.00;61375.16;4981371;28;20590;-30
2021/07/26 02:16:38;;;;;;;5.30;2.10;;;;;;;-148.56;100.00;61375.16;4984193;28;20120;-29
2021/07/26 02:20:04;;;;;;;3.35;2.65;;;;;;;-148.56;100.00;61375.16;4980250;28;20030;-31
2021/07/26 02:23:28;;;;;;;6.18;2.78;;;;;;;-148.56;100.00;61375.16;4986602;28;20030;-31
2021/07/26 02:26:51;;;;;;;6.22;2.83;;;;;;;-148.56;100.00;61375.16;4989973;28;20026;-33
2021/07/26 02:30:15;;;;;;;4.68;2.38;;;;;;;-148.56;100.00;61375.16;4994224;28;20045;-30
2021/07/26 02:33:39;;;;;;;3.40;2.20;;;;;;;-148.56;100.00;61375.16;4989711;28;20412;-33
2021/07/26 02:37:03;;;;;;;2.53;1.90;;;;;;;-148.56;100.00;61375.16;4981783;28;20056;-32
2021/07/26 02:40:28;;;;;;;5.18;2.53;;;;;;;-148.56;100.00;61375.16;4984040;28;20440;-31
2021/07/26 02:43:52;;;;;;;5.82;2.33;;;;;;;-148.56;100.00;61375.16;4986280;28;20118;-30
2021/07/26 02:47:16;;;;;;;5.10;2.63;;;;;;;-148.56;100.00;61375.16;4983102;28;20030;-31
2021/07/26 02:50:40;;;;;;;4.35;2.17;;;;;;;-148.56;100.00;61375.16;4986039;28;20046;-33
2021/07/26 02:54:03;;;;;;;5.10;2.38;;;;;;;-148.56;100.00;61375.16;5000731;28;20563;-30
2021/07/26 02:57:27;;;;;;;3.78;2.33;;;;;;;-148.56;100.00;61375.16;4984446;28;20097;-31
2021/07/26 03:00:51;;;;;;;4.45;2.33;;;;;;;-148.56;100.00;61375.16;4987485;28;20443;-31
2021/07/26 03:03:22;;;;;;;8.90;2.03;;;;;;;-148.56;100.00;61375.16;4972028;28;20041;-32
2021/07/26 03:06:46;;;;;;;4.90;2.38;;;;;;;-148.56;100.00;61375.16;4977323;28;20230;-36
2021/07/26 03:10:10;;;;;;;4.05;2.30;;;;;;;-148.56;100.00;61375.16;4983565;28;20103;-31
2021/07/26 03:13:34;;;;;;;5.00;2.35;;;;;;;-148.56;100.00;61375.16;4984596;28;20451;-30
2021/07/26 03:17:03;;;;;;;4.78;2.60;;;;;;;-148.56;100.00;61375.16;4983838;28;20030;-31
2021/07/26 03:20:27;;;;;;;4.65;2.00;;;;;;;-148.56;100.00;61375.16;4984279;28;20164;-32
2021/07/26 03:23:18;;;;;;;3.83;2.47;;;;;;;29.34;40.48;96094.22;4996824;28;20034;-32
2021/07/26 03:26:42;;;;;;;4.38;2.25;;;;;;;-148.56;100.00;61375.16;4977727;28;20628;-31
2021/07/26 03:30:06;;;;;;;6.25;2.30;;;;;;;-148.56;100.00;61375.16;4994780;28;20069;-35
2021/07/26 03:33:30;;;;;;;5.38;2.58;;;;;;;-148.56;100.00;61375.16;4989343;28;20040;-30
2021/07/26 03:36:54;;;;;;;7.28;2.38;;;;;;;-148.56;100.00;61375.16;4991418;28;20106;-32
2021/07/26 03:40:18;;;;;;;5.05;2.50;;;;;;;-148.56;100.00;61375.16;4991658;28;20026;-33
2021/07/26 03:43:42;;;;;;;8.32;2.40;;;;;;;-148.56;100.00;61375.16;4984842;28;20084;-31
2021/07/26 03:47:06;;;;;;;4.93;2.50;;;;;;;-148.56;100.00;61375.16;4992230;28;20033;-32
2021/07/26 03:50:30;;;;;;;4.32;2.40;;;;;;;-148.56;100.00;61375.16;4987805;28;20038;-30
2021/07/26 03:53:54;;;;;;;5.28;2.65;;;;;;;-148.56;100.00;61375.16;4988119;28;20037;-29
2021/07/26 03:57:18;;;;;;;5.90;2.53;;;;;;;-148.56;100.00;61375.16;4996812;28;20683;-29
2021/07/26 04:00:44;;;;;;;6.40;2.47;;;;;;;-148.56;100.00;61375.16;4990602;28;20105;-32
2021/07/26 04:04:08;;;;;;;6.30;2.53;;;;;;;-148.56;100.00;61375.16;4985344;28;20038;-32
2021/07/26 04:07:34;;;;;;;5.72;2.53;;;;;;;-148.56;100.00;61375.16;4989672;28;20190;-30
2021/07/26 04:11:12;;;;;;;6.30;2.60;;;;;;;-148.56;100.00;61375.16;4990028;28;20508;-30
2021/07/26 04:14:39;;;;;;;10.90;2.75;;;;;;;-148.56;100.00;61375.16;4986606;28;20038;-33
2021/07/26 04:18:03;;;;;;;9.75;2.90;;;;;;;-148.56;100.00;61375.16;4988501;28;20978;-31
2021/07/26 04:21:27;;;;;;;10.15;3.05;;;;;;;-148.56;100.00;61375.16;4983150;28;20034;-34
2021/07/26 04:24:51;;;;;;;7.05;2.92;;;;;;;-148.56;100.00;61375.16;4982969;28;20534;-31
2021/07/26 04:28:15;;;;;;;10.80;2.85;;;;;;;-148.56;100.00;61375.16;4984971;28;20041;-29
2021/07/26 04:31:39;;;;;;;9.68;2.35;;;;;;;-148.56;100.00;61375.16;4984563;28;20038;-32
2021/07/26 04:35:04;;;;;;;5.78;2.30;;;;;;;-148.56;100.00;61375.16;4981831;28;20095;-31
2021/07/26 04:38:28;;;;;;;4.88;2.50;;;;;;;-148.56;100.00;61375.16;4990384;28;20524;-30
2021/07/26 04:41:52;;;;;;;5.20;2.30;;;;;;;-148.56;100.00;61375.16;4985577;28;20113;-32
2021/07/26 04:45:16;;;;;;;10.45;2.58;;;;;;;-148.56;100.00;61375.16;4982431;28;20499;-33
2021/07/26 04:48:40;;;;;;;10.57;2.83;;;;;;;-148.56;100.00;61375.16;4988109;28;20057;-32
2021/07/26 04:52:04;;;;;;;7.07;2.58;;;;;;;-148.56;100.00;61375.16;4995876;28;20026;-33
2021/07/26 04:55:28;;;;;;;3.97;2.20;;;;;;;-148.56;100.00;61375.16;4987043;28;20026;-31
2021/07/26 04:58:51;;;;;;;14.10;3.70;;;;;;;-148.56;100.00;61375.16;4989042;28;20117;-31
2021/07/26 05:02:15;;;;;;;6.20;2.25;;;;;;;-148.56;100.00;61375.16;4991001;28;20034;-32
2021/07/26 05:05:39;;;;;;;9.32;2.60;;;;;;;-148.56;100.00;61375.16;4986482;28;20105;-33
2021/07/26 05:09:03;;;;;;;5.13;2.30;;;;;;;-148.56;100.00;61375.16;4989996;28;20469;-34
2021/07/26 05:12:27;;;;;;;4.70;2.25;;;;;;;-148.56;100.00;61375.16;4984999;28;20042;-32
2021/07/26 05:15:51;;;;;;;9.32;2.60;;;;;;;-148.56;100.00;61375.16;4987607;28;20041;-32
2021/07/26 05:19:15;;;;;;;4.57;2.30;;;;;;;-148.56;100.00;61375.16;4989385;28;20036;-30
2021/07/26 05:22:39;;;;;;;6.88;2.70;;;;;;;-148.56;100.00;61375.16;4983996;28;20042;-31
2021/07/26 05:26:06;;;;;;;3.78;2.30;;;;;;;-148.56;100.00;61375.16;4982941;28;20061;-31
2021/07/26 05:29:30;;;;;;;8.00;2.35;;;;;;;-148.56;100.00;61375.16;4987934;28;21412;-31
2021/07/26 05:32:54;;;;;;;7.75;2.63;;;;;;;-148.56;100.00;61375.16;4986569;28;20057;-31
2021/07/26 05:36:23;;;;;;;5.25;2.75;;;;;;;-148.56;100.00;61375.16;5003039;28;20029;-32
2021/07/26 05:39:47;;;;;;;10.80;2.50;;;;;;;-148.56;100.00;61375.16;4990620;28;20033;-31
2021/07/26 05:43:11;;;;;;;8.77;2.58;;;;;;;-148.56;100.00;61375.16;4983253;28;20030;-30
2021/07/26 05:46:35;;;;;;;8.50;2.42;;;;;;;-148.56;100.00;61375.16;4989456;28;20603;-32
2021/07/26 05:49:59;;;;;;;11.82;2.85;;;;;;;-148.56;100.00;61375.16;4984169;28;20034;-31
2021/07/26 05:53:23;;;;;;;7.80;2.55;;;;;;;-148.56;100.00;61375.16;4983186;28;20041;-31
2021/07/26 05:56:48;;;;;;;10.23;2.78;;;;;;;-148.56;100.00;61375.16;4984677;28;20064;-31
2021/07/26 06:00:15;;;;;;;8.40;2.75;;;;;;;-148.56;100.00;61375.16;4985819;28;20026;-34
2021/07/26 06:03:39;;;;;;;8.95;2.88;;;;;;;-148.56;100.00;61375.16;4991209;28;20061;-31
2021/07/26 06:07:03;;;;;;;7.95;2.88;;;;;;;-148.56;100.00;61375.16;4985199;28;20030;-30
2021/07/26 06:10:27;;;;;;;27.08;3.65;;;;;;;-148.56;100.00;61375.16;4977568;28;20032;-30
2021/07/26 06:13:51;;;;;;;12.57;4.40;;;;;;;-148.56;100.00;61375.16;4983831;28;20030;-35
2021/07/26 06:17:15;;;;;;;14.73;4.15;;;;;;;-148.56;100.00;61375.16;4987719;28;20052;-31
2021/07/26 06:20:39;;;;;;;14.23;4.28;;;;;;;-148.56;100.00;61375.16;4981733;28;20116;-31
2021/07/26 06:24:03;;;;;;;13.10;3.60;;;;;;;-148.56;100.00;61375.16;4975724;28;20030;-33
2021/07/26 06:27:27;;;;;;;9.65;3.33;;;;;;;-148.56;100.00;61375.16;4980654;28;20571;-29
2021/07/26 06:30:52;;;;;;;12.50;3.78;;;;;;;-148.56;100.00;61375.16;4980814;28;20109;-31
2021/07/26 06:34:15;;;;;;;21.00;3.65;;;;;;;-148.56;100.00;61375.16;4972086;28;20045;-31
2021/07/26 06:37:39;;;;;;;12.85;3.83;;;;;;;-148.56;100.00;61375.16;4975826;28;20038;-30
2021/07/26 06:41:05;;;;;;;13.82;3.97;;;;;;;-148.56;100.00;61375.16;4976789;28;20030;-33
2021/07/26 06:44:29;;;;;;;13.27;4.07;;;;;;;-148.56;100.00;61375.16;4997080;28;20233;-30
2021/07/26 06:47:53;;;;;;;10.52;3.70;;;;;;;-148.56;100.00;61375.16;4980939;28;20437;-31
2021/07/26 06:51:17;;;;;;;8.00;3.72;;;;;;;-148.56;100.00;61375.16;4979922;28;20107;-30
2021/07/26 06:54:41;;;;;;;9.38;3.50;;;;;;;-148.56;100.00;61375.16;4988607;28;20021;-33
2021/07/26 06:58:05;;;;;;;11.70;3.97;;;;;;;-148.56;100.00;61375.16;4985901;28;20148;-30
2021/07/26 07:01:29;;;;;;;8.57;3.92;;;;;;;-148.56;100.00;61375.16;4984105;28;20116;-31
2021/07/26 07:04:52;;;;;;;8.95;3.70;;;;;;;-148.56;100.00;61375.16;4986977;28;20046;-30
2021/07/26 07:08:16;;;;;;;7.57;3.38;;;;;;;-148.56;100.00;61375.16;4987670;28;20034;-29
2021/07/26 07:11:40;;;;;;;9.38;3.20;;;;;;;-148.56;100.00;61375.16;4985445;28;20060;-30
2021/07/26 07:15:04;;;;;;;7.25;3.13;;;;;;;-148.56;100.00;61375.16;4989001;28;20077;-32
2021/07/26 07:18:28;;;;;;;10.73;3.55;;;;;;;-148.56;100.00;61375.16;4984741;28;20026;-30
2021/07/26 07:21:52;;;;;;;5.95;3.30;;;;;;;-148.56;100.00;61375.16;4981039;28;20026;-30
2021/07/26 07:25:16;;;;;;;8.73;3.70;;;;;;;-148.56;100.00;61375.16;4982414;28;20045;-30
2021/07/26 07:28:40;;;;;;;8.45;3.63;;;;;;;-148.56;100.00;61375.16;4983082;28;20080;-33
2021/07/26 07:32:04;;;;;;;6.07;3.40;;;;;;;-148.56;100.00;61375.16;4984693;28;20105;-29
2021/07/26 07:35:29;;;;;;;5.88;3.30;;;;;;;-148.56;100.00;61375.16;4983928;28;20095;-35
2021/07/26 07:38:53;;;;;;;10.25;3.17;;;;;;;-148.56;100.00;61375.16;4983340;28;20029;-32
2021/07/26 07:42:17;;;;;;;7.22;3.10;;;;;;;-148.56;100.00;61375.16;4985010;28;20563;-30
2021/07/26 07:45:41;;;;;;;15.20;4.05;;;;;;;-148.56;100.00;61375.16;4979149;28;20112;-30
2021/07/26 07:49:06;;;;;;;13.90;3.63;;;;;;;-148.56;100.00;61375.16;4979365;28;20311;-30
2021/07/26 07:52:30;;;;;;;10.27;3.40;;;;;;;-148.56;100.00;61375.16;4981139;28;20065;-32
2021/07/26 07:55:56;;;;;;;8.23;3.25;;;;;;;-148.56;100.00;61375.16;4978675;28;20294;-31
2021/07/26 07:59:21;;;;;;;9.55;3.42;;;;;;;-148.56;100.00;61375.16;4978403;28;20085;-33
2021/07/26 08:02:45;;;;;;;9.52;3.47;;;;;;;-148.56;100.00;61375.16;4978422;28;20120;-30
2021/07/26 08:06:09;;;;;;;9.65;3.40;;;;;;;-148.56;100.00;61375.16;4982491;28;20121;-31
2021/07/26 08:09:33;;;;;;;10.80;3.85;;;;;;;-148.56;100.00;61375.16;4983228;28;20040;-31
2021/07/26 08:12:57;;;;;;;13.15;3.80;;;;;;;-148.56;100.00;61375.16;4987585;28;20077;-34
2021/07/26 08:16:22;;;;;;;11.45;4.03;;;;;;;-148.56;100.00;61375.16;5006193;28;20408;-29
2021/07/26 08:19:46;;;;;;;12.82;4.50;;;;;;;-148.56;100.00;61375.16;4986899;28;20037;-30
2021/07/26 08:23:10;;;;;;;16.15;4.43;;;;;;;-148.56;100.00;61375.16;4990237;28;20061;-30
2021/07/26 08:26:34;;;;;;;15.63;4.30;;;;;;;-148.56;100.00;61375.16;4992053;28;20407;-31
2021/07/26 08:29:58;;;;;;;12.07;4.45;;;;;;;-148.56;100.00;61375.16;4989526;28;20065;-31
2021/07/26 08:33:22;;;;;;;13.88;4.72;;;;;;;-148.56;100.00;61375.16;4989548;28;20030;-29
2021/07/26 08:36:45;;;;;;;13.43;4.30;;;;;;;-148.56;100.00;61375.16;4992772;28;20088;-30
2021/07/26 08:40:10;;;;;;;11.88;4.70;;;;;;;-148.56;100.00;61375.16;4987687;28;20512;-29
2021/07/26 08:43:34;;;;;;;9.55;4.13;;;;;;;-148.56;100.00;61375.16;4992143;28;20417;-30
2021/07/26 08:46:58;;;;;;;12.23;4.20;;;;;;;-148.56;100.00;61375.16;4991669;28;20134;-29
2021/07/26 08:50:23;;;;;;;11.27;4.10;;;;;;;-148.56;100.00;61375.16;4982617;28;20030;-30
2021/07/26 08:53:50;;;;;;;11.27;4.15;;;;;;;-148.56;100.00;61375.16;4984455;28;20044;-32
2021/07/26 08:57:14;;;;;;;10.98;4.03;;;;;;;-148.56;100.00;61375.16;4988957;28;20038;-31
2021/07/26 09:00:38;;;;;;;10.05;3.88;;;;;;;-148.56;100.00;61375.16;5003439;28;20033;-30
2021/07/26 09:04:02;;;;;;;10.52;4.10;;;;;;;-148.56;100.00;61375.16;4986885;28;20029;-29
2021/07/26 09:07:28;;;;;;;9.45;3.83;;;;;;;-148.56;100.00;61375.16;4995913;28;20085;-31
2021/07/26 09:10:54;;;;;;;11.02;3.45;;;;;;;-148.56;100.00;61375.16;4990075;28;20551;-30
2021/07/26 09:14:37;;;;;;;10.88;3.60;;;;;;;-148.56;100.00;61375.16;4988106;28;20030;-33
2021/07/26 09:18:02;;;;;;;9.13;3.53;;;;;;;-148.56;100.00;61375.16;4996044;28;20085;-29
2021/07/26 09:21:52;;;;;;;11.88;4.03;;;;;;;-148.56;100.00;61375.16;4990567;28;20022;-31
2021/07/26 09:25:22;;;;;;;9.85;3.80;;;;;;;-148.56;100.00;61375.16;4988146;28;20562;-29
2021/07/26 09:29:37;;;;;;;8.63;3.30;;;;;;;-148.56;100.00;61375.16;4987194;28;20048;-31
2021/07/26 09:33:02;;;;;;;6.57;3.10;;;;;;;-148.56;100.00;61375.16;4961885;28;20042;-30
2021/07/26 09:36:26;;;;;;;7.95;3.75;;;;;;;-148.56;100.00;61375.16;4986814;28;20044;-32
2021/07/26 09:39:53;;;;;;;11.43;3.60;;;;;;;-148.56;100.00;61375.16;5002129;28;20038;-29
2021/07/26 09:43:24;;;;;;;4.90;2.80;;;;;;;-148.56;100.00;61375.16;4984496;28;20049;-31
2021/07/26 09:46:53;;;;;;;6.45;2.80;;;;;;;-148.56;100.00;61375.16;4984506;28;20042;-29
2021/07/26 09:50:31;;;;;;;7.55;3.30;;;;;;;-148.56;100.00;61375.16;4982570;28;20029;-30
2021/07/26 09:53:55;;;;;;;7.10;3.17;;;;;;;-148.56;100.00;61375.16;4995165;28;20104;-31
2021/07/26 09:57:19;;;;;;;10.38;2.97;;;;;;;-148.56;100.00;61375.16;4976891;28;20031;-30
2021/07/26 10:00:44;;;;;;;6.15;2.88;;;;;;;-148.56;100.00;61375.16;4979921;28;20510;-30
2021/07/26 10:04:09;;;;;;;5.43;2.80;;;;;;;-148.56;100.00;61375.16;4981232;28;20403;-31
2021/07/26 10:07:22;;;;;;;4.88;2.80;;;;;;;-148.56;100.00;61375.16;4979453;28;20057;-31
2021/07/26 10:10:45;;;;;;;7.10;2.90;;;;;;;-148.56;100.00;61375.16;4996485;28;20027;-33
2021/07/26 10:14:09;;;;;;;4.85;2.80;;;;;;;-148.56;100.00;61375.16;4981156;28;20030;-31
2021/07/26 10:17:33;;;;;;;6.90;2.60;;;;;;;-148.56;100.00;61375.16;4980261;28;20926;-32
2021/07/26 10:20:26;;;;;;;6.75;2.92;;;;;;;-148.56;100.00;61375.16;4998540;28;20038;-31
2021/07/26 10:23:50;;;;;;;4.20;2.50;;;;;;;-148.56;100.00;61375.16;5000833;28;20322;-31
2021/07/26 10:27:17;;;;;;;5.40;2.75;;;;;;;-148.56;100.00;61375.16;4988878;28;20029;-30
2021/07/26 10:30:54;;;;;;;7.05;2.38;;;;;;;-148.56;100.00;61375.16;4983311;28;20626;-30
2021/07/26 10:34:20;;;;;;;5.90;2.80;;;;;;;-148.56;100.00;61375.16;4996984;28;20034;-31
2021/07/26 10:37:45;;;;;;;6.78;2.53;;;;;;;-148.56;100.00;61375.16;5002965;28;20234;-33
2021/07/26 10:41:55;;;;;;;5.20;2.65;;;;;;;-148.56;100.00;61375.16;4985572;28;20399;-31
2021/07/26 10:45:06;;;;;;;5.35;2.80;;;;;;;-148.56;100.00;61375.16;4964298;28;20042;-31
2021/07/26 10:47:40;;;;;;;5.95;2.65;;;;;;;-148.56;100.00;61375.16;5005886;28;20041;-29
2021/07/26 10:51:27;;;;;;;4.60;2.78;;;;;;;-148.56;100.00;61375.16;4991191;28;20112;-31
2021/07/26 10:54:51;;;;;;;4.10;2.70;;;;;;;-148.56;100.00;61375.16;4978154;28;20047;-31
2021/07/26 10:58:43;;;;;;;4.78;2.47;;;;;;;-148.56;100.00;61375.16;4986131;28;20112;-30
2021/07/26 11:02:31;;;;;;;3.70;2.30;;;;;;;-148.56;100.00;61375.16;4988664;28;20030;-35
2021/07/26 11:05:55;;;;;;;4.65;2.50;;;;;;;-148.56;100.00;61375.16;4989305;28;20029;-33
2021/07/26 11:09:19;;;;;;;6.03;2.40;;;;;;;-148.56;100.00;61375.16;4983544;28;20032;-31
2021/07/26 11:12:53;;;;;;;3.88;2.33;;;;;;;-148.56;100.00;61375.16;4988290;28;20072;-32
2021/07/26 11:16:36;;;;;;;3.92;2.45;;;;;;;-148.56;100.00;61375.16;4998279;28;20026;-32
2021/07/26 11:20:38;;;;;;;5.55;2.55;;;;;;;-148.56;100.00;61375.16;4985248;28;20091;-29
2021/07/26 11:24:02;;;;;;;9.32;2.80;;;;;;;-148.56;100.00;61375.16;4981040;28;20054;-30
2021/07/26 11:27:32;;;;;;;6.80;2.65;;;;;;;-148.56;100.00;61375.16;4980879;28;20049;-30
2021/07/26 11:30:56;;;;;;;11.27;2.92;;;;;;;-148.56;100.00;61375.16;4987659;28;20028;-30
2021/07/26 11:34:21;;;;;;;8.88;3.00;;;;;;;-148.56;100.00;61375.16;4977835;28;20799;-30
2021/07/26 11:37:29;;;;;;;7.45;2.78;;;;;;;-148.56;100.00;61375.16;4994380;28;20104;-30
2021/07/26 11:41:00;;;;;;;8.85;2.85;;;;;;;-148.56;100.00;61375.16;4984424;28;20040;-29
2021/07/26 11:43:52;;;;;;;5.57;2.63;;;;;;;-148.56;100.00;61375.16;4980287;28;20066;-30
2021/07/26 11:47:16;;;;;;;6.45;2.80;;;;;;;-148.56;100.00;61375.16;4990027;28;20083;-29
2021/07/26 11:50:49;;;;;;;6.32;2.40;;;;;;;-148.56;100.00;61375.16;4982854;28;20033;-31
2021/07/26 11:54:12;;;;;;;5.80;2.60;;;;;;;-148.56;100.00;61375.16;4999001;28;20038;-30
2021/07/26 11:57:36;;;;;;;4.15;2.63;;;;;;;-148.56;100.00;61375.16;4983392;28;20025;-30
2021/07/26 12:01:00;;;;;;;8.18;2.70;;;;;;;-148.56;100.00;61375.16;4979775;28;20037;-29
2021/07/26 12:04:25;;;;;;;5.55;2.75;;;;;;;-148.56;100.00;61375.16;4994814;28;20033;-31
2021/07/26 12:07:55;;;;;;;6.40;2.70;;;;;;;-148.56;100.00;61375.16;4995529;28;20120;-31
2021/07/26 12:11:32;;;;;;;29.15;3.10;;;;;;;-148.56;100.00;61375.16;4981039;28;20064;-30
2021/07/26 12:14:56;;;;;;;12.60;3.20;;;;;;;-148.56;100.00;61375.16;4997333;28;20042;-30
2021/07/26 12:18:30;;;;;;;11.60;3.22;;;;;;;-148.56;100.00;61375.16;4989085;28;20057;-31
2021/07/26 12:21:55;;;;;;;12.35;3.10;;;;;;;-148.56;100.00;61375.16;4980666;28;20056;-30
2021/07/26 12:25:41;;;;;;;11.05;3.45;;;;;;;-148.56;100.00;61375.16;4998566;28;20052;-30
2021/07/26 12:29:11;;;;;;;16.25;3.55;;;;;;;-148.56;100.00;61375.16;4981705;28;20030;-30
2021/07/26 12:32:50;;;;;;;11.85;3.22;;;;;;;-148.56;100.00;61375.16;5003867;28;20034;-31
2021/07/26 12:36:17;;;;;;;13.07;3.83;;;;;;;-148.56;100.00;61375.16;4989775;28;20029;-30
2021/07/26 12:40:15;;;;;;;12.02;3.88;;;;;;;-148.56;100.00;61375.16;4988687;28;20037;-32
2021/07/26 12:43:42;;;;;;;9.35;3.20;;;;;;;-148.56;100.00;61375.16;4985068;28;20062;-32
2021/07/26 12:47:14;;;;;;;6.82;3.45;;;;;;;-148.56;100.00;61375.16;4987200;28;20038;-31
2021/07/26 12:50:39;;;;;;;14.65;2.97;;;;;;;-148.56;100.00;61375.16;4994669;28;20485;-32
2021/07/26 12:54:03;;;;;;;6.40;2.75;;;;;;;-148.56;100.00;61375.16;4988484;28;20061;-30
2021/07/26 12:57:27;;;;;;;8.45;2.92;;;;;;;-148.56;100.00;61375.16;4960805;28;20058;-31
2021/07/26 13:00:51;;;;;;;5.95;2.83;;;;;;;-148.56;100.00;61375.16;4988789;28;20037;-30
2021/07/26 13:04:15;;;;;;;18.83;3.10;;;;;;;-148.56;100.00;61375.16;4996610;28;21940;-29
2021/07/26 13:07:39;;;;;;;10.02;3.13;;;;;;;-148.56;100.00;61375.16;4989721;28;20116;-30
2021/07/26 13:11:03;;;;;;;6.40;2.85;;;;;;;-148.56;100.00;61375.16;4986028;28;20041;-32
2021/07/26 13:14:27;;;;;;;10.48;2.65;;;;;;;-148.56;100.00;61375.16;4989760;28;20070;-32
2021/07/26 13:17:52;;;;;;;4.88;2.75;;;;;;;-148.56;100.00;61375.16;4987607;28;20277;-31
2021/07/26 13:21:15;;;;;;;7.68;3.05;;;;;;;-148.56;100.00;61375.16;4990509;28;20415;-30
2021/07/26 13:24:40;;;;;;;6.85;2.58;;;;;;;-148.56;100.00;61375.16;4984813;28;20045;-30
2021/07/26 13:28:04;;;;;;;5.53;2.45;;;;;;;-148.56;100.00;61375.16;4983167;28;20021;-31
2021/07/26 13:31:30;;;;;;;5.45;2.72;;;;;;;-148.56;100.00;61375.16;4990651;28;20069;-30
2021/07/26 13:34:54;;;;;;;5.05;2.88;;;;;;;-148.56;100.00;61375.16;4988339;28;20026;-33
2021/07/26 13:38:18;;;;;;;6.22;2.90;;;;;;;-148.56;100.00;61375.16;4990578;28;20049;-31
2021/07/26 13:41:42;;;;;;;9.13;2.72;;;;;;;-148.56;100.00;61375.16;4983669;28;20054;-31
2021/07/26 13:45:06;;;;;;;6.60;2.67;;;;;;;-148.56;100.00;61375.16;4987041;28;20423;-31
2021/07/26 13:48:31;;;;;;;5.95;2.30;;;;;;;-148.56;100.00;61375.16;4989537;28;20126;-29
2021/07/26 13:51:55;;;;;;;7.30;2.70;;;;;;;-148.56;100.00;61375.16;5005999;28;20034;-30
2021/07/26 13:55:19;;;;;;;6.60;2.75;;;;;;;-148.56;100.00;61375.16;4988685;28;20038;-31
2021/07/26 13:58:43;;;;;;;6.07;2.65;;;;;;;-148.56;100.00;61375.16;4986987;28;20140;-31
2021/07/26 14:02:08;;;;;;;5.63;2.72;;;;;;;-148.56;100.00;61375.16;4990681;28;20030;-31
2021/07/26 14:05:32;;;;;;;5.53;2.63;;;;;;;-148.56;100.00;61375.16;4999306;28;20621;-32
2021/07/26 14:08:56;;;;;;;4.18;2.30;;;;;;;-148.56;100.00;61375.16;4987447;28;20483;-30
2021/07/26 14:12:20;;;;;;;5.47;2.53;;;;;;;-148.56;100.00;61375.16;4988178;28;20033;-30
2021/07/26 14:15:03;;;;;;;4.75;2.38;;;;;;;-148.56;100.00;61375.16;4991515;28;20044;-30
2021/07/26 14:18:29;;;;;;;3.35;2.35;;;;;;;-148.56;100.00;61375.16;4986690;28;20069;-32
2021/07/26 14:21:53;;;;;;;2.92;2.00;;;;;;;-148.56;100.00;61375.16;5002054;28;20643;-30
2021/07/26 14:25:17;;;;;;;4.55;2.60;;;;;;;-148.56;100.00;61375.16;4986526;28;20081;-30
2021/07/26 14:28:41;;;;;;;6.00;2.53;;;;;;;-148.56;100.00;61375.16;4984359;28;20026;-32
2021/07/26 14:31:20;;;;;;;3.03;2.20;;;;;;;-148.56;100.00;61375.16;4994159;28;20060;-30
2021/07/26 14:34:44;;;;;;;4.18;2.25;;;;;;;-148.56;100.00;61375.16;4986014;28;20101;-32
2021/07/26 14:38:08;;;;;;;4.60;2.20;;;;;;;-148.56;100.00;61375.16;4989396;28;20034;-30
2021/07/26 14:41:32;;;;;;;3.40;2.40;;;;;;;-148.56;100.00;61375.16;4988803;28;20034;-30
2021/07/26 14:44:56;;;;;;;3.70;2.00;;;;;;;-148.56;100.00;61375.16;4982364;28;20022;-31
2021/07/26 14:48:20;;;;;;;3.50;2.15;;;;;;;-148.56;100.00;61375.16;4987786;28;20037;-30
2021/07/26 14:51:46;;;;;;;4.47;2.15;;;;;;;-148.56;100.00;61375.16;5002506;28;20484;-31
2021/07/26 14:55:10;;;;;;;3.65;2.20;;;;;;;-148.56;100.00;61375.16;4986024;28;20022;-30
2021/07/26 14:58:18;;;;;;;3.80;2.10;;;;;;;-148.56;100.00;61375.16;4988368;28;20072;-30
2021/07/26 15:01:42;;;;;;;2.80;2.03;;;;;;;-148.56;100.00;61375.16;4989242;28;20026;-31
2021/07/26 15:05:06;;;;;;;2.65;2.00;;;;;;;-148.56;100.00;61375.16;5004233;28;20033;-30
2021/07/26 15:08:30;;;;;;;4.20;2.08;;;;;;;-148.56;100.00;61375.16;5002631;28;20030;-29
2021/07/26 15:11:54;;;;;;;2.15;1.80;;;;;;;-148.56;100.00;61375.16;4990490;28;20029;-30
2021/07/26 15:15:18;;;;;;;4.38;2.00;;;;;;;-148.56;100.00;61375.16;4988134;28;20030;-32
2021/07/26 15:18:42;;;;;;;3.22;1.88;;;;;;;-148.56;100.00;61375.16;4988665;28;20032;-31
2021/07/26 15:22:06;;;;;;;2.97;2.03;;;;;;;-148.56;100.00;61375.16;4986761;28;20542;-31
2021/07/26 15:25:30;;;;;;;2.40;1.60;;;;;;;-148.56;100.00;61375.16;4993108;28;20176;-29
2021/07/26 15:28:53;;;;;;;1.88;1.40;;;;;;;-148.56;100.00;61375.16;4988470;28;20037;-31